Time;durP1;ratioP1;P1;durP2;ratioP2;P2;SDS_P1;SDS_P2;PMS_P1;PMS_P2;Temp;Humidity;BMP_temperature;BMP_pressure;BME280_temperature;BME280_humidity;BME280_pressure;Samples;Min_cycle;Max_cycle;Signal;HPM_P1;HPM_P2
2023/12/23 00:00:11;;;;;;;3.85;1.52;;;;;;;8.98;80.62;100943.84;5075899;28;20107;-66
2023/12/23 00:02:37;;;;;;;6.53;1.50;;;;;;;9.03;80.40;100952.28;5076467;28;20039;-65
2023/12/23 00:05:02;;;;;;;6.13;1.60;;;;;;;9.04;80.48;100953.13;5081556;28;20036;-65
2023/12/23 00:07:27;;;;;;;6.15;1.48;;;;;;;9.07;80.66;100950.69;5089306;28;20474;-65
2023/12/23 00:09:53;;;;;;;3.80;1.40;;;;;;;9.06;80.15;100954.56;5079564;28;20028;-65
2023/12/23 00:12:18;;;;;;;7.97;1.50;;;;;;;9.08;80.29;100957.94;5092636;28;20154;-65
2023/12/23 00:14:43;;;;;;;6.90;1.67;;;;;;;9.09;80.70;100948.56;5073952;28;20036;-65
2023/12/23 00:17:09;;;;;;;6.10;1.60;;;;;;;9.11;80.89;100945.53;5088898;28;20616;-65
2023/12/23 00:19:34;;;;;;;6.70;1.70;;;;;;;9.12;80.87;100946.38;5082568;28;20587;-65
2023/12/23 00:21:59;;;;;;;7.45;1.33;;;;;;;9.13;80.33;100942.53;5084997;28;20475;-65
2023/12/23 00:24:26;;;;;;;3.65;1.60;;;;;;;9.13;80.45;100943.38;5079545;28;20048;-65
2023/12/23 00:26:51;;;;;;;7.45;1.80;;;;;;;9.15;80.40;100948.66;5082475;28;20028;-65
2023/12/23 00:29:16;;;;;;;5.95;1.63;;;;;;;9.15;80.87;100935.66;5081390;28;20182;-65
2023/12/23 00:31:42;;;;;;;5.70;1.70;;;;;;;9.14;80.80;100935.91;5080386;28;20035;-65
2023/12/23 00:34:07;;;;;;;6.38;1.90;;;;;;;9.13;80.44;100926.75;5082811;28;20028;-65
2023/12/23 00:36:32;;;;;;;5.65;1.95;;;;;;;9.15;80.44;100930.13;5091101;28;20024;-65
2023/12/23 00:39:00;;;;;;;4.15;1.95;;;;;;;9.15;80.99;100930.13;5091949;28;20024;-66
2023/12/23 00:41:26;;;;;;;6.07;2.20;;;;;;;9.15;81.12;100932.03;5083356;28;20028;-65
2023/12/23 00:43:51;;;;;;;7.43;2.25;;;;;;;9.17;80.82;100924.34;5081085;28;20432;-65
2023/12/23 00:46:16;;;;;;;8.27;2.40;;;;;;;9.18;80.85;100910.25;5073715;28;20085;-65
2023/12/23 00:48:42;;;;;;;7.47;2.63;;;;;;;9.21;81.43;100922.78;5071283;28;20037;-65
2023/12/23 00:51:08;;;;;;;4.88;1.90;;;;;;;9.20;81.70;100916.41;5070268;28;20372;-65
2023/12/23 00:53:33;;;;;;;6.43;2.25;;;;;;;9.23;81.66;100903.97;5088070;28;20031;-65
2023/12/23 00:55:59;;;;;;;10.57;2.58;;;;;;;9.25;82.02;100893.50;5089818;28;20482;-65
2023/12/23 00:58:24;;;;;;;8.82;2.20;;;;;;;9.25;81.99;100897.13;5071543;28;20085;-66
2023/12/23 01:00:50;;;;;;;11.82;2.50;;;;;;;9.27;82.99;100894.09;5075283;28;20039;-65
2023/12/23 01:03:15;;;;;;;13.35;2.67;;;;;;;9.27;82.92;100888.56;5070700;28;20447;-65
2023/12/23 01:05:40;;;;;;;10.15;2.25;;;;;;;9.27;83.08;100894.09;5072990;28;20054;-65
2023/12/23 01:08:06;;;;;;;12.93;2.83;;;;;;;9.31;83.23;100901.69;5087378;28;20039;-65
2023/12/23 01:10:31;;;;;;;8.23;2.55;;;;;;;9.35;82.66;100899.25;5072390;28;20025;-65
2023/12/23 01:12:56;;;;;;;11.40;2.50;;;;;;;9.39;83.27;100883.00;5079685;28;20390;-65
2023/12/23 01:15:21;;;;;;;12.25;2.78;;;;;;;9.39;82.57;100897.69;5071373;28;20111;-65
2023/12/23 01:17:47;;;;;;;11.90;3.08;;;;;;;9.42;82.69;100888.88;5084632;28;20066;-65
2023/12/23 01:20:12;;;;;;;9.48;2.28;;;;;;;9.43;82.63;100887.81;5073412;28;20468;-65
2023/12/23 01:22:37;;;;;;;13.77;2.58;;;;;;;9.43;82.28;100878.66;5082405;28;20059;-65
2023/12/23 01:25:03;;;;;;;11.98;2.40;;;;;;;9.43;82.70;100876.75;5070763;28;20483;-65
2023/12/23 01:27:28;;;;;;;10.38;2.35;;;;;;;9.42;82.31;100876.97;5080220;28;20043;-64
2023/12/23 01:29:54;;;;;;;12.07;2.58;;;;;;;9.43;81.87;100876.75;5085957;28;20028;-65
2023/12/23 01:32:20;;;;;;;14.30;3.20;;;;;;;9.42;82.13;100879.75;5082676;28;20090;-64
2023/12/23 01:34:48;;;;;;;13.43;2.17;;;;;;;9.43;82.15;100870.34;5085042;28;20043;-65
2023/12/23 01:37:13;;;;;;;10.98;2.60;;;;;;;9.44;82.04;100867.34;5085058;28;20082;-64
2023/12/23 01:39:39;;;;;;;11.90;2.67;;;;;;;9.48;82.28;100873.22;5070219;28;20042;-64
2023/12/23 01:42:04;;;;;;;10.40;2.50;;;;;;;9.46;82.06;100869.84;5079548;28;20043;-64
2023/12/23 01:44:30;;;;;;;12.40;2.53;;;;;;;9.48;82.33;100859.38;5088495;28;20062;-65
2023/12/23 01:46:58;;;;;;;9.73;2.33;;;;;;;9.49;82.30;100867.44;5089226;28;20032;-65
2023/12/23 01:49:25;;;;;;;12.13;2.33;;;;;;;9.50;82.52;100871.88;5073504;28;20024;-65
2023/12/23 01:51:53;;;;;;;9.60;2.67;;;;;;;9.48;82.76;100864.91;5081472;28;20115;-65
2023/12/23 01:54:21;;;;;;;10.55;2.20;;;;;;;9.51;82.51;100867.19;5084941;28;20024;-64
2023/12/23 01:56:48;;;;;;;9.95;3.60;;;;;;;9.52;82.78;100866.94;5080130;28;20028;-65
2023/12/23 01:59:15;;;;;;;9.13;2.30;;;;;;;9.53;82.93;100868.63;5078616;28;20090;-65
2023/12/23 02:01:41;;;;;;;6.47;1.88;;;;;;;9.56;82.79;100861.75;5082813;28;20035;-65
2023/12/23 02:04:06;;;;;;;11.43;2.42;;;;;;;9.57;82.83;100857.88;5075002;28;20032;-65
2023/12/23 02:06:31;;;;;;;6.63;1.92;;;;;;;9.57;83.39;100858.72;5070964;28;20111;-65
2023/12/23 02:08:57;;;;;;;10.32;2.45;;;;;;;9.56;83.83;100859.81;5071050;28;20040;-65
2023/12/23 02:11:52;;;;;;;10.48;2.17;;;;;;;9.57;84.32;100871.75;5083465;28;20430;-65
2023/12/23 02:14:26;;;;;;;8.63;2.35;;;;;;;9.51;84.48;100851.41;5070520;28;20434;-65
2023/12/23 02:16:52;;;;;;;8.77;1.98;;;;;;;9.53;84.68;100849.22;5086917;28;20020;-65
2023/12/23 02:19:17;;;;;;;8.60;2.30;;;;;;;9.53;84.71;100835.38;5088930;28;20032;-65
2023/12/23 02:21:43;;;;;;;5.63;2.00;;;;;;;9.53;84.97;100838.16;5074836;28;20435;-65
2023/12/23 02:24:08;;;;;;;9.77;2.80;;;;;;;9.54;84.75;100836.22;5087099;28;20093;-65
2023/12/23 02:26:37;;;;;;;12.65;2.58;;;;;;;9.53;84.80;100846.47;5094070;28;20027;-65
2023/12/23 02:29:03;;;;;;;8.18;2.38;;;;;;;9.57;84.71;100849.56;5073325;28;20113;-65
2023/12/23 02:31:30;;;;;;;8.25;2.20;;;;;;;9.56;84.48;100848.75;5086083;28;20042;-65
2023/12/23 02:33:56;;;;;;;16.08;3.33;;;;;;;9.58;84.38;100841.00;5086669;28;20068;-65
2023/12/23 02:36:22;;;;;;;10.55;2.72;;;;;;;9.52;84.65;100839.25;5079460;28;20117;-65
2023/12/23 02:38:50;;;;;;;11.48;2.38;;;;;;;9.53;84.55;100838.16;5084727;28;20031;-65
2023/12/23 02:41:16;;;;;;;10.52;2.55;;;;;;;9.54;84.45;100841.75;5082487;28;20033;-64
2023/12/23 02:43:41;;;;;;;8.85;2.30;;;;;;;9.52;84.34;100836.47;5078294;28;20020;-65
2023/12/23 02:46:09;;;;;;;8.30;2.53;;;;;;;9.50;84.42;100832.25;5073949;28;20395;-65
2023/12/23 02:48:34;;;;;;;14.15;2.72;;;;;;;9.48;84.61;100826.97;5081678;28;20040;-65
2023/12/23 02:51:00;;;;;;;9.23;2.50;;;;;;;9.51;84.51;100818.16;5087577;28;20031;-65
2023/12/23 02:53:25;;;;;;;14.40;3.60;;;;;;;9.52;84.06;100807.94;5080585;28;20028;-66
2023/12/23 02:55:50;;;;;;;10.98;2.65;;;;;;;9.53;83.71;100798.50;5079535;28;20021;-65
2023/12/23 02:58:16;;;;;;;9.80;2.60;;;;;;;9.53;83.21;100809.59;5086485;28;20028;-65
2023/12/23 03:00:41;;;;;;;9.52;2.42;;;;;;;9.51;83.39;100812.63;5090471;28;20032;-65
2023/12/23 03:03:06;;;;;;;13.80;2.60;;;;;;;9.55;83.68;100804.66;5073308;28;20052;-65
2023/12/23 03:05:31;;;;;;;9.05;2.10;;;;;;;9.56;83.18;100798.03;5074927;28;20040;-65
2023/12/23 03:07:57;;;;;;;10.93;2.53;;;;;;;9.59;82.95;100808.63;5092694;28;20032;-65
2023/12/23 03:10:25;;;;;;;10.80;2.63;;;;;;;9.59;82.63;100787.28;5083090;28;20031;-65
2023/12/23 03:12:50;;;;;;;8.10;2.40;;;;;;;9.58;82.23;100788.34;5083635;28;20024;-65
2023/12/23 03:15:15;;;;;;;9.40;2.65;;;;;;;9.60;81.82;100801.97;5077121;28;20024;-66
2023/12/23 03:17:41;;;;;;;12.40;2.58;;;;;;;9.61;82.21;100792.56;5072607;28;20368;-65
2023/12/23 03:20:08;;;;;;;9.73;2.38;;;;;;;9.63;81.95;100800.63;5079083;28;20032;-65
2023/12/23 03:22:34;;;;;;;8.50;2.17;;;;;;;9.65;81.50;100792.91;5091575;28;20467;-65
2023/12/23 03:24:59;;;;;;;12.30;2.55;;;;;;;9.65;81.59;100795.69;5084501;28;20083;-65
2023/12/23 03:27:27;;;;;;;11.43;2.50;;;;;;;9.61;81.41;100797.28;5073034;28;20063;-65
2023/12/23 03:29:52;;;;;;;14.23;2.38;;;;;;;9.55;81.43;100797.19;5087449;28;20028;-65
2023/12/23 03:32:17;;;;;;;9.65;2.13;;;;;;;9.57;81.68;100802.47;5076441;28;20035;-64
2023/12/23 03:34:43;;;;;;;10.10;2.65;;;;;;;9.55;81.76;100802.72;5077821;28;20033;-65
2023/12/23 03:37:09;;;;;;;9.82;3.03;;;;;;;9.54;81.97;100812.09;5084450;28;20009;-65
2023/12/23 03:39:34;;;;;;;11.95;3.00;;;;;;;9.54;82.14;100800.19;5074035;28;20028;-65
2023/12/23 03:42:00;;;;;;;10.88;2.80;;;;;;;9.55;81.91;100802.72;5086032;28;20106;-65
2023/12/23 03:44:25;;;;;;;11.40;2.70;;;;;;;9.56;81.61;100790.56;5081093;28;20198;-65
2023/12/23 03:46:56;;;;;;;10.90;3.30;;;;;;;9.52;81.22;100783.00;5080892;28;20029;-65
2023/12/23 03:49:21;;;;;;;7.82;2.65;;;;;;;9.53;81.47;100791.03;5087924;28;20024;-65
2023/12/23 03:51:46;;;;;;;9.97;2.43;;;;;;;9.50;81.36;100788.75;5082156;28;20035;-65
2023/12/23 03:54:11;;;;;;;9.13;3.28;;;;;;;9.51;81.70;100796.00;5088507;28;20024;-65
2023/12/23 03:56:37;;;;;;;11.38;2.63;;;;;;;9.51;81.28;100784.94;5076467;28;20476;-65
2023/12/23 03:59:02;;;;;;;9.02;2.47;;;;;;;9.52;81.50;100786.59;5073204;28;20027;-65
2023/12/23 04:01:28;;;;;;;9.82;3.05;;;;;;;9.57;81.33;100789.47;5081706;28;20028;-65
2023/12/23 04:03:53;;;;;;;15.93;2.60;;;;;;;9.56;81.04;100787.78;5084601;28;20034;-65
2023/12/23 04:06:18;;;;;;;9.27;2.40;;;;;;;9.57;81.10;100783.06;5086624;28;20028;-65
2023/12/23 04:08:43;;;;;;;13.52;3.45;;;;;;;9.57;80.83;100789.47;5092568;28;20032;-64
2023/12/23 04:11:09;;;;;;;13.50;3.33;;;;;;;9.54;80.95;100781.63;5085452;28;20495;-65
2023/12/23 04:13:34;;;;;;;10.27;2.92;;;;;;;9.54;80.79;100778.03;5072958;28;20037;-65
2023/12/23 04:16:04;;;;;;;9.88;3.17;;;;;;;9.52;80.78;100769.97;5080953;28;20027;-65
2023/12/23 04:18:29;;;;;;;9.40;2.65;;;;;;;9.49;81.03;100775.16;5092713;28;20036;-65
2023/12/23 04:20:54;;;;;;;8.77;2.72;;;;;;;9.50;81.16;100766.59;5082833;28;20028;-65
2023/12/23 04:23:20;;;;;;;12.43;3.08;;;;;;;9.48;80.80;100771.56;5075945;28;20475;-65
2023/12/23 04:25:45;;;;;;;9.20;3.10;;;;;;;9.45;80.85;100774.81;5079267;28;20118;-65
2023/12/23 04:28:11;;;;;;;13.05;2.95;;;;;;;9.47;80.85;100769.88;5091366;28;20048;-65
2023/12/23 04:30:37;;;;;;;11.50;2.70;;;;;;;9.51;81.17;100756.34;5077403;28;20076;-65
2023/12/23 04:33:02;;;;;;;10.50;3.20;;;;;;;9.48;80.71;100743.84;5085423;28;20044;-65
2023/12/23 04:35:27;;;;;;;8.88;2.50;;;;;;;9.46;80.25;100751.56;5089417;28;20043;-65
2023/12/23 04:37:53;;;;;;;11.48;2.78;;;;;;;9.48;80.54;100752.16;5073357;28;20024;-65
2023/12/23 04:40:18;;;;;;;11.25;2.50;;;;;;;9.49;80.30;100730.84;5091828;28;20032;-65
2023/12/23 04:42:43;;;;;;;13.88;3.15;;;;;;;9.52;80.44;100746.97;5082477;28;20040;-65
2023/12/23 04:45:09;;;;;;;8.27;2.50;;;;;;;9.54;80.39;100739.22;5087771;28;20066;-65
2023/12/23 04:47:37;;;;;;;12.45;2.97;;;;;;;9.55;80.57;100736.22;5076695;28;20029;-65
2023/12/23 04:50:06;;;;;;;7.38;2.60;;;;;;;9.58;80.21;100723.78;5089320;28;20481;-65
2023/12/23 04:52:32;;;;;;;9.07;2.50;;;;;;;9.58;79.87;100735.72;5074019;28;20090;-65
2023/12/23 04:54:59;;;;;;;10.80;2.90;;;;;;;9.59;79.82;100726.31;5077809;28;20139;-65
2023/12/23 04:57:24;;;;;;;12.32;2.72;;;;;;;9.57;79.87;100730.44;5071256;28;20021;-65
2023/12/23 04:59:50;;;;;;;10.57;2.67;;;;;;;9.54;79.97;100726.22;5071244;28;20163;-65
2023/12/23 05:02:15;;;;;;;11.25;2.60;;;;;;;9.52;79.94;100731.19;5078134;28;20074;-64
2023/12/23 05:04:42;;;;;;;11.25;2.67;;;;;;;9.55;80.41;100727.91;5088744;28;20086;-64
2023/12/23 05:07:08;;;;;;;7.70;2.40;;;;;;;9.57;80.12;100716.56;5081802;28;20040;-64
2023/12/23 05:09:34;;;;;;;12.02;2.72;;;;;;;9.57;80.04;100733.19;5076991;28;20047;-65
2023/12/23 05:12:00;;;;;;;10.68;2.50;;;;;;;9.55;79.98;100719.59;5088104;28;20102;-65
2023/12/23 05:14:25;;;;;;;8.20;2.67;;;;;;;9.54;80.03;100733.69;5073904;28;20166;-65
2023/12/23 05:16:59;;;;;;;10.30;2.45;;;;;;;9.52;80.06;100731.19;5070596;28;20487;-65
2023/12/23 05:19:24;;;;;;;10.88;2.90;;;;;;;9.54;79.94;100723.44;5074704;28;20031;-64
2023/12/23 05:21:50;;;;;;;10.35;2.80;;;;;;;9.56;79.96;100721.28;5073648;28;20028;-66
2023/12/23 05:24:15;;;;;;;11.57;2.53;;;;;;;9.58;80.16;100723.78;5090887;28;20028;-65
2023/12/23 05:26:40;;;;;;;14.02;2.78;;;;;;;9.59;80.47;100706.94;5087936;28;20130;-65
2023/12/23 05:29:06;;;;;;;10.80;2.47;;;;;;;9.62;80.11;100701.97;5071682;28;20040;-64
2023/12/23 05:31:31;;;;;;;9.13;2.50;;;;;;;9.58;79.81;100699.69;5084125;28;20150;-65
2023/12/23 05:33:59;;;;;;;10.00;2.58;;;;;;;9.56;79.88;100714.91;5083166;28;20036;-65
2023/12/23 05:36:25;;;;;;;8.60;2.28;;;;;;;9.53;79.86;100699.59;5081368;28;20032;-65
2023/12/23 05:38:50;;;;;;;14.45;3.08;;;;;;;9.55;79.71;100696.59;5088747;28;20035;-65
2023/12/23 05:41:15;;;;;;;11.20;2.70;;;;;;;9.55;79.33;100711.28;5075143;28;20033;-65
2023/12/23 05:43:40;;;;;;;8.65;2.60;;;;;;;9.58;79.58;100699.69;5082564;28;20032;-65
2023/12/23 05:46:06;;;;;;;8.55;2.53;;;;;;;9.60;79.47;100696.69;5082302;28;20060;-65
2023/12/23 05:48:33;;;;;;;11.13;2.50;;;;;;;9.58;79.58;100696.06;5081911;28;20020;-65
2023/12/23 05:50:58;;;;;;;10.48;2.42;;;;;;;9.56;79.15;100703.81;5088339;28;20099;-65
2023/12/23 05:53:24;;;;;;;10.65;2.20;;;;;;;9.59;79.59;100704.16;5077975;28;20788;-65
2023/12/23 05:55:49;;;;;;;10.02;2.58;;;;;;;9.58;79.19;100710.78;5092264;28;20427;-65
2023/12/23 05:58:14;;;;;;;11.85;2.83;;;;;;;9.59;79.65;100712.47;5093212;28;20447;-65
2023/12/23 06:00:39;;;;;;;11.18;2.65;;;;;;;9.63;79.62;100712.81;5082516;28;20037;-65
2023/12/23 06:03:05;;;;;;;9.35;2.40;;;;;;;9.59;79.04;100708.88;5075958;28;20151;-66
2023/12/23 06:05:30;;;;;;;12.77;3.17;;;;;;;9.63;79.31;100712.81;5083402;28;20024;-65
2023/12/23 06:07:56;;;;;;;12.95;2.83;;;;;;;9.63;79.05;100704.50;5085153;28;20028;-64
2023/12/23 06:10:22;;;;;;;12.23;2.65;;;;;;;9.65;79.54;100710.63;5073762;28;20418;-64
2023/12/23 06:12:47;;;;;;;13.77;3.17;;;;;;;9.65;79.02;100695.94;5083139;28;20035;-64
2023/12/23 06:15:12;;;;;;;10.95;3.00;;;;;;;9.66;79.22;100697.59;5093017;28;20104;-60
2023/12/23 06:17:38;;;;;;;10.93;2.45;;;;;;;9.69;79.60;100697.09;5077911;28;20590;-66
2023/12/23 06:20:04;;;;;;;15.85;3.17;;;;;;;9.68;79.24;100689.88;5087440;28;20043;-65
2023/12/23 06:22:30;;;;;;;11.30;2.83;;;;;;;9.67;79.32;100691.81;5081714;28;20043;-66
2023/12/23 06:24:55;;;;;;;14.48;3.28;;;;;;;9.70;79.27;100699.59;5089727;28;20516;-66
2023/12/23 06:27:20;;;;;;;10.15;3.15;;;;;;;9.73;79.16;100703.81;5080768;28;20044;-66
2023/12/23 06:29:46;;;;;;;11.55;2.50;;;;;;;9.73;78.86;100692.72;5077861;28;20047;-66
2023/12/23 06:32:11;;;;;;;9.43;2.38;;;;;;;9.71;79.01;100692.16;5084175;28;20029;-65
2023/12/23 06:34:36;;;;;;;18.83;3.50;;;;;;;9.71;78.81;100692.16;5082386;28;20467;-66
2023/12/23 06:37:04;;;;;;;12.18;3.08;;;;;;;9.74;79.18;100702.72;5093847;28;20016;-65
2023/12/23 06:39:30;;;;;;;12.13;2.78;;;;;;;9.73;79.02;100703.81;5080180;28;20098;-65
2023/12/23 06:41:55;;;;;;;10.50;2.63;;;;;;;9.73;79.02;100715.75;5088371;28;20028;-66
2023/12/23 06:44:21;;;;;;;11.98;2.75;;;;;;;9.72;79.05;100708.53;5092915;28;20457;-65
2023/12/23 06:46:47;;;;;;;10.15;2.78;;;;;;;9.78;79.60;100706.66;5077882;28;20115;-64
2023/12/23 06:49:12;;;;;;;10.75;3.00;;;;;;;9.76;79.19;100695.00;5080030;28;20600;-64
2023/12/23 06:51:37;;;;;;;11.32;2.67;;;;;;;9.70;79.02;100696.84;5091264;28;20065;-65
2023/12/23 06:54:03;;;;;;;11.57;2.97;;;;;;;9.70;79.17;100699.59;5094372;28;20119;-65
2023/12/23 06:56:28;;;;;;;12.82;3.20;;;;;;;9.70;79.21;100687.69;5086184;28;20025;-65
2023/12/23 06:58:53;;;;;;;14.82;2.85;;;;;;;9.67;79.03;100691.81;5083731;28;20478;-65
2023/12/23 07:01:18;;;;;;;12.50;2.75;;;;;;;9.66;79.24;100692.88;5089096;28;20047;-65
2023/12/23 07:03:44;;;;;;;13.80;3.00;;;;;;;9.69;79.56;100694.34;5085111;28;20119;-65
2023/12/23 07:06:12;;;;;;;12.32;2.97;;;;;;;9.68;79.67;100700.97;5088439;28;20059;-65
2023/12/23 07:08:38;;;;;;;11.50;2.70;;;;;;;9.67;79.61;100700.13;5085208;28;20032;-65
2023/12/23 07:11:03;;;;;;;12.18;2.80;;;;;;;9.68;79.34;100698.19;5093090;28;20182;-65
2023/12/23 07:13:29;;;;;;;14.32;3.22;;;;;;;9.72;79.65;100691.06;5093620;28;20032;-65
2023/12/23 07:15:54;;;;;;;12.73;2.80;;;;;;;9.71;79.12;100684.69;5079853;28;20877;-65
2023/12/23 07:18:19;;;;;;;13.90;3.10;;;;;;;9.73;79.32;100678.88;5083490;28;20028;-65
2023/12/23 07:20:46;;;;;;;13.35;2.72;;;;;;;9.71;79.17;100700.47;5073677;28;20078;-65
2023/12/23 07:23:11;;;;;;;11.32;2.67;;;;;;;9.73;79.31;100703.81;5072705;28;20069;-65
2023/12/23 07:25:37;;;;;;;10.90;2.50;;;;;;;9.72;79.11;100703.00;5073377;28;20111;-65
2023/12/23 07:28:02;;;;;;;12.25;2.75;;;;;;;9.74;79.34;100700.78;5073171;28;20060;-65
2023/12/23 07:30:27;;;;;;;8.88;2.22;;;;;;;9.74;79.07;100703.56;5071589;28;20383;-65
2023/12/23 07:32:53;;;;;;;11.55;2.90;;;;;;;9.76;78.75;100720.78;5090727;28;20040;-65
2023/12/23 07:35:18;;;;;;;12.68;2.58;;;;;;;9.79;78.69;100708.38;5092159;28;20119;-65
2023/12/23 07:37:43;;;;;;;10.82;2.45;;;;;;;9.77;78.49;100710.53;5092970;28;20020;-65
2023/12/23 07:40:09;;;;;;;12.60;3.22;;;;;;;9.77;78.63;100716.91;5092258;28;20372;-65
2023/12/23 07:42:34;;;;;;;17.48;2.65;;;;;;;9.76;78.61;100726.34;5090596;28;20122;-65
2023/12/23 07:45:00;;;;;;;14.05;2.53;;;;;;;9.77;78.78;100716.09;5092111;28;20051;-65
2023/12/23 07:47:25;;;;;;;12.02;2.80;;;;;;;9.75;78.39;100713.56;5092499;28;20035;-65
2023/12/23 07:49:51;;;;;;;12.65;2.80;;;;;;;9.79;78.51;100705.59;5092105;28;20113;-64
2023/12/23 07:52:16;;;;;;;11.77;2.88;;;;;;;9.80;78.41;100710.03;5083012;28;20024;-65
2023/12/23 07:54:41;;;;;;;10.82;2.60;;;;;;;9.82;78.01;100691.22;5089638;28;20585;-65
2023/12/23 07:57:07;;;;;;;10.95;2.53;;;;;;;9.80;78.01;100693.41;5074864;28;20392;-65
2023/12/23 07:59:32;;;;;;;12.45;2.67;;;;;;;9.80;78.18;100694.25;5071935;28;20026;-65
2023/12/23 08:01:57;;;;;;;9.98;2.67;;;;;;;9.82;77.90;100711.47;5084243;28;20032;-65
2023/12/23 08:04:22;;;;;;;11.20;2.67;;;;;;;9.85;77.74;100704.56;5092828;28;20468;-65
2023/12/23 08:06:48;;;;;;;9.05;2.42;;;;;;;9.83;77.29;100715.94;5086348;28;20032;-66
2023/12/23 08:09:13;;;;;;;7.43;2.20;;;;;;;9.83;77.36;100707.63;5083770;28;20024;-65
2023/12/23 08:11:38;;;;;;;12.85;2.58;;;;;;;9.85;77.33;100707.34;5082430;28;20042;-65
2023/12/23 08:14:04;;;;;;;10.32;2.08;;;;;;;9.87;77.45;100702.41;5086307;28;20463;-65
2023/12/23 08:16:29;;;;;;;11.48;2.63;;;;;;;9.87;77.00;100704.34;5081416;28;20051;-65
2023/12/23 08:18:55;;;;;;;14.95;2.50;;;;;;;9.89;77.36;100729.88;5079915;28;20024;-65
2023/12/23 08:21:21;;;;;;;10.23;2.22;;;;;;;9.89;76.86;100725.16;5084120;28;20023;-65
2023/12/23 08:23:46;;;;;;;10.02;1.90;;;;;;;9.90;76.76;100721.28;5082961;28;20024;-67
2023/12/23 08:26:11;;;;;;;11.18;2.60;;;;;;;9.90;76.60;100712.13;5075513;28;20025;-66
2023/12/23 08:28:37;;;;;;;9.90;2.20;;;;;;;9.88;76.32;100723.50;5087834;28;20052;-66
2023/12/23 08:31:02;;;;;;;5.88;1.55;;;;;;;9.91;76.75;100722.16;5088104;28;20197;-66
2023/12/23 08:33:28;;;;;;;11.95;2.03;;;;;;;9.91;76.51;100728.53;5083647;28;20032;-65
2023/12/23 08:35:54;;;;;;;7.90;2.20;;;;;;;9.94;76.74;100730.81;5081463;28;20024;-65
2023/12/23 08:38:20;;;;;;;11.38;2.15;;;;;;;9.91;76.76;100725.75;5086813;28;20084;-64
2023/12/23 08:40:45;;;;;;;7.55;2.10;;;;;;;9.93;76.77;100731.03;5076964;28;20024;-65
2023/12/23 08:43:11;;;;;;;7.32;1.90;;;;;;;9.93;76.92;100731.03;5077671;28;20708;-64
2023/12/23 08:45:37;;;;;;;14.52;2.33;;;;;;;9.91;76.89;100734.06;5080694;28;20040;-65
2023/12/23 08:48:05;;;;;;;12.30;2.58;;;;;;;9.93;77.28;100745.75;5074275;28;20024;-64
2023/12/23 08:50:36;;;;;;;11.77;2.70;;;;;;;9.92;77.49;100729.38;5082048;28;20056;-64
2023/12/23 08:53:02;;;;;;;8.07;2.00;;;;;;;9.94;77.34;100722.50;5079965;28;20036;-65
2023/12/23 08:55:28;;;;;;;9.05;2.88;;;;;;;9.96;77.44;100728.59;5075926;28;20042;-60
2023/12/23 08:57:53;;;;;;;8.25;1.95;;;;;;;9.94;77.85;100733.59;5076185;28;20218;-66
2023/12/23 09:00:18;;;;;;;8.55;2.22;;;;;;;9.98;77.86;100744.97;5089919;28;20055;-64
2023/12/23 09:02:44;;;;;;;6.15;2.30;;;;;;;10.00;78.33;100754.75;5090919;28;20032;-64
2023/12/23 09:05:12;;;;;;;12.55;2.53;;;;;;;10.01;78.70;100753.63;5091389;28;20042;-64
2023/12/23 09:07:37;;;;;;;6.68;2.15;;;;;;;10.00;78.88;100748.34;5087965;28;20032;-67
2023/12/23 09:10:07;;;;;;;9.45;2.47;;;;;;;9.95;79.36;100768.53;5074456;28;20073;-66
2023/12/23 09:12:33;;;;;;;9.77;2.08;;;;;;;9.93;79.55;100765.16;5075458;28;20040;-66
2023/12/23 09:15:01;;;;;;;9.82;2.22;;;;;;;9.90;79.88;100767.59;5091536;28;20081;-65
2023/12/23 09:17:26;;;;;;;13.10;2.10;;;;;;;9.84;80.18;100763.88;5087279;28;20103;-66
2023/12/23 09:19:51;;;;;;;6.60;1.83;;;;;;;9.89;80.50;100774.22;5078892;28;20170;-66
2023/12/23 09:22:17;;;;;;;9.05;2.38;;;;;;;9.84;80.18;100791.63;5084359;28;20039;-66
2023/12/23 09:24:45;;;;;;;8.88;1.98;;;;;;;9.86;80.60;100786.66;5082974;28;20027;-66
2023/12/23 09:27:10;;;;;;;8.25;2.40;;;;;;;9.85;80.62;100782.19;5091153;28;20523;-65
2023/12/23 09:29:35;;;;;;;8.38;2.10;;;;;;;9.89;80.18;100768.69;5090764;28;20039;-66
2023/12/23 09:32:01;;;;;;;7.25;2.13;;;;;;;9.89;80.25;100780.59;5085908;28;20133;-66
2023/12/23 09:34:26;;;;;;;10.15;2.88;;;;;;;9.90;80.24;100770.34;5090019;28;20028;-66
2023/12/23 09:36:52;;;;;;;7.50;2.33;;;;;;;9.88;79.73;100756.75;5080607;28;20036;-66
2023/12/23 09:39:17;;;;;;;11.55;2.42;;;;;;;9.89;79.62;100769.50;5082906;28;20032;-65
2023/12/23 09:41:44;;;;;;;10.15;2.42;;;;;;;9.90;79.13;100770.34;5091381;28;20106;-65
2023/12/23 09:44:09;;;;;;;10.20;2.00;;;;;;;9.88;79.10;100778.94;5088771;28;20435;-66
2023/12/23 09:46:37;;;;;;;7.43;2.38;;;;;;;9.86;79.36;100788.59;5090322;28;20115;-66
2023/12/23 09:49:06;;;;;;;12.95;2.28;;;;;;;9.91;79.27;100799.78;5082404;28;20031;-66
2023/12/23 09:51:32;;;;;;;10.90;2.40;;;;;;;9.91;78.46;100789.53;5073872;28;20740;-66
2023/12/23 09:54:02;;;;;;;7.15;2.63;;;;;;;9.91;78.72;100783.97;5070496;28;20035;-66
2023/12/23 09:56:28;;;;;;;11.27;2.15;;;;;;;9.92;78.45;100791.19;5071049;28;20028;-65
2023/12/23 09:58:53;;;;;;;9.60;2.10;;;;;;;9.93;78.16;100781.78;5073798;28;20487;-64
2023/12/23 10:01:19;;;;;;;9.90;2.28;;;;;;;9.96;78.42;100780.44;5074389;28;20071;-68
2023/12/23 10:03:46;;;;;;;10.23;2.35;;;;;;;9.94;78.15;100800.13;5087781;28;20027;-67
2023/12/23 10:06:13;;;;;;;10.25;2.22;;;;;;;9.94;78.04;100802.91;5083024;28;20028;-67
2023/12/23 10:08:39;;;;;;;8.77;2.40;;;;;;;9.96;78.28;100797.94;5091484;28;20061;-66
2023/12/23 10:11:05;;;;;;;11.02;2.90;;;;;;;9.97;78.23;100793.22;5075647;28;20036;-68
2023/12/23 10:13:30;;;;;;;8.90;2.15;;;;;;;9.99;77.94;100805.75;5072064;28;20028;-66
2023/12/23 10:15:55;;;;;;;8.10;2.40;;;;;;;9.97;77.56;100810.69;5082051;28;20116;-67
2023/12/23 10:18:21;;;;;;;8.82;2.30;;;;;;;9.97;77.55;100802.38;5086643;28;20835;-66
2023/12/23 10:20:46;;;;;;;10.20;2.88;;;;;;;9.99;77.62;100800.22;5076038;28;20039;-66
2023/12/23 10:23:12;;;;;;;6.30;1.85;;;;;;;10.00;77.60;100787.19;5073957;28;20032;-68
2023/12/23 10:25:38;;;;;;;9.70;2.80;;;;;;;10.02;77.28;100788.63;5084071;28;20387;-66
2023/12/23 10:28:10;;;;;;;8.27;1.80;;;;;;;10.03;77.24;100790.28;5088704;28;20040;-68
2023/12/23 10:30:38;;;;;;;8.07;1.92;;;;;;;10.03;76.84;100778.38;5089538;28;20103;-66
2023/12/23 10:33:08;;;;;;;7.57;2.00;;;;;;;10.06;76.87;100784.25;5075580;28;20479;-65
2023/12/23 10:35:43;;;;;;;4.47;1.83;;;;;;;10.07;76.59;100793.41;5081397;28;20032;-65
2023/12/23 10:38:09;;;;;;;6.43;1.67;;;;;;;10.07;76.74;100785.94;5083206;28;20032;-65
2023/12/23 10:40:34;;;;;;;8.68;2.15;;;;;;;10.09;76.76;100797.59;5074212;28;20028;-65
2023/12/23 10:43:01;;;;;;;11.77;2.72;;;;;;;10.12;76.50;100796.25;5075144;28;20450;-66
2023/12/23 10:45:30;;;;;;;6.03;2.17;;;;;;;10.19;76.58;100798.88;5079812;28;20111;-66
2023/12/23 10:47:58;;;;;;;7.15;2.72;;;;;;;10.21;76.45;100816.09;5073108;28;20031;-67
2023/12/23 10:50:25;;;;;;;10.27;1.98;;;;;;;10.20;76.06;100795.00;5075318;28;20029;-66
2023/12/23 10:52:52;;;;;;;9.02;2.20;;;;;;;10.20;75.89;100798.59;5076578;28;20024;-66
2023/12/23 10:55:19;;;;;;;10.75;1.90;;;;;;;10.21;75.80;100789.19;5073705;28;20111;-66
2023/12/23 10:57:48;;;;;;;6.25;2.20;;;;;;;10.20;75.60;100772.81;5074462;28;20039;-66
2023/12/23 11:00:14;;;;;;;7.18;1.90;;;;;;;10.18;76.00;100772.22;5080362;28;20028;-66
2023/12/23 11:02:41;;;;;;;5.18;1.90;;;;;;;10.21;75.91;100777.25;5072467;28;20788;-66
2023/12/23 11:05:07;;;;;;;11.90;1.88;;;;;;;10.23;75.73;100783.41;5088444;28;20580;-65
2023/12/23 11:07:40;;;;;;;8.43;2.10;;;;;;;10.23;75.67;100787.00;5076210;28;20543;-66
2023/12/23 11:10:08;;;;;;;8.68;1.95;;;;;;;10.27;75.58;100773.53;5081293;28;20059;-66
2023/12/23 11:12:33;;;;;;;8.30;2.03;;;;;;;10.25;75.55;100778.47;5074341;28;20043;-67
2023/12/23 11:14:59;;;;;;;7.47;1.80;;;;;;;10.28;75.00;100789.91;5073358;28;20027;-67
2023/12/23 11:17:45;;;;;;;7.00;1.55;;;;;;;10.30;75.28;100787.72;5091359;28;20030;-67
2023/12/23 11:20:34;;;;;;;7.88;1.83;;;;;;;10.35;75.25;100791.66;5077806;28;20042;-67
2023/12/23 11:23:00;;;;;;;4.30;1.55;;;;;;;10.32;74.94;100804.09;5083681;28;20062;-66